createdAt,value
2023-05-10T00:01:11.185Z,61.88
2023-05-10T00:03:39.157Z,62.11
2023-05-10T00:06:07.226Z,62.04
2023-05-10T00:08:35.090Z,62.03
2023-05-10T00:11:03.085Z,62.33
2023-05-10T00:13:31.288Z,62.46
2023-05-10T00:15:59.224Z,62.50
2023-05-10T00:18:27.070Z,63.45
2023-05-10T00:20:54.934Z,63.73
2023-05-10T00:23:22.798Z,64.94
2023-05-10T00:25:50.635Z,64.68
2023-05-10T00:28:18.432Z,64.75
2023-05-10T00:30:46.302Z,65.37
2023-05-10T00:33:14.683Z,65.53
2023-05-10T00:35:42.410Z,65.68
2023-05-10T00:38:10.686Z,65.75
2023-05-10T00:40:39.098Z,65.89
2023-05-10T00:43:10.865Z,66.33
2023-05-10T00:45:40.258Z,66.46
2023-05-10T00:48:08.204Z,66.89
2023-05-10T00:50:36.578Z,66.72
2023-05-10T00:53:04.776Z,67.20
2023-05-10T00:55:32.733Z,67.04
2023-05-10T00:58:00.713Z,67.46
2023-05-10T01:00:28.500Z,67.18
2023-05-10T01:02:56.553Z,67.31
2023-05-10T01:05:24.656Z,67.73
2023-05-10T01:07:52.533Z,67.83
2023-05-10T01:10:20.556Z,67.87
2023-05-10T01:12:48.925Z,68.26
2023-05-10T01:15:17.813Z,68.43
2023-05-10T01:17:48.489Z,69.00
2023-05-10T01:20:16.746Z,69.37
2023-05-10T01:22:50.959Z,68.65
2023-05-10T01:25:27.922Z,68.31
2023-05-10T01:28:07.974Z,68.84
2023-05-10T01:30:45.251Z,68.81
2023-05-10T01:33:20.718Z,68.85
2023-05-10T01:35:51.539Z,68.85
2023-05-10T01:38:28.510Z,68.84
2023-05-10T01:41:02.608Z,68.60
2023-05-10T01:43:34.274Z,68.20
2023-05-10T01:46:06.340Z,68.17
2023-05-10T01:48:34.721Z,68.37
2023-05-10T01:51:02.979Z,68.87
2023-05-10T01:53:32.198Z,68.92
2023-05-10T01:56:01.276Z,68.73
2023-05-10T01:58:31.508Z,68.95
2023-05-10T02:01:01.964Z,68.92
2023-05-10T02:03:31.452Z,68.96
2023-05-10T02:06:00.240Z,69.05
2023-05-10T02:08:28.502Z,69.23
2023-05-10T02:10:57.152Z,69.34
2023-05-10T02:13:27.068Z,69.47
2023-05-10T02:15:55.852Z,69.20
2023-05-10T02:18:25.100Z,69.35
2023-05-10T02:20:55.009Z,69.67
2023-05-10T02:23:24.426Z,69.77
2023-05-10T02:25:52.988Z,69.81
2023-05-10T02:28:22.790Z,69.85
2023-05-10T02:30:51.992Z,69.72
2023-05-10T02:33:21.096Z,69.91
2023-05-10T02:35:49.563Z,69.98
2023-05-10T02:38:18.854Z,70.15
2023-05-10T02:40:47.546Z,70.01
2023-05-10T02:43:17.447Z,70.06
2023-05-10T02:45:48.126Z,70.09
2023-05-10T02:48:17.186Z,70.44
2023-05-10T02:50:46.076Z,70.44
2023-05-10T02:53:20.414Z,70.53
2023-05-10T02:55:52.153Z,70.46
2023-05-10T02:58:22.885Z,70.26
2023-05-10T03:00:50.850Z,70.66
2023-05-10T03:03:18.726Z,70.89
2023-05-10T03:05:46.540Z,70.58
2023-05-10T03:08:14.549Z,71.07
2023-05-10T03:10:56.968Z,70.37
2023-05-10T03:13:40.915Z,70.87
2023-05-10T03:16:22.202Z,70.97
2023-05-10T03:19:00.914Z,71.07
2023-05-10T03:21:30.431Z,70.77
2023-05-10T03:24:07.065Z,70.98
2023-05-10T03:26:36.097Z,71.32
2023-05-10T03:29:09.886Z,71.44
2023-05-10T03:31:39.248Z,71.31
2023-05-10T03:34:08.208Z,70.42
2023-05-10T03:36:36.356Z,70.14
2023-05-10T03:39:04.224Z,70.03
2023-05-10T03:41:32.286Z,69.40
2023-05-10T03:44:00.185Z,69.39
2023-05-10T03:46:28.567Z,69.44
2023-05-10T03:48:56.700Z,70.17
2023-05-10T03:51:29.183Z,70.82
2023-05-10T03:53:57.268Z,70.70
2023-05-10T03:56:25.230Z,71.15
2023-05-10T03:58:53.288Z,71.29
2023-05-10T04:01:21.104Z,71.68
2023-05-10T04:03:49.122Z,70.98
2023-05-10T04:06:17.598Z,70.09
2023-05-10T04:08:45.838Z,69.57
2023-05-10T04:11:14.761Z,69.22
2023-05-10T04:13:44.172Z,68.04
2023-05-10T04:16:12.024Z,67.43
2023-05-10T04:18:40.906Z,67.13
2023-05-10T04:21:15.235Z,66.68
2023-05-10T04:23:43.322Z,66.23
2023-05-10T04:26:11.164Z,65.26
2023-05-10T04:28:39.019Z,64.27
2023-05-10T04:31:08.713Z,63.62
2023-05-10T04:33:37.328Z,63.30
2023-05-10T04:36:05.715Z,63.34
2023-05-10T04:38:33.570Z,63.04
2023-05-10T04:41:11.096Z,62.72
2023-05-10T04:43:39.341Z,61.84
2023-05-10T04:46:08.611Z,60.65
2023-05-10T04:48:36.513Z,60.38
2023-05-10T04:51:05.214Z,60.06
2023-05-10T04:53:33.461Z,60.22
2023-05-10T04:56:01.336Z,59.77
2023-05-10T04:58:29.416Z,59.53
2023-05-10T05:00:57.297Z,58.55
2023-05-10T05:03:25.200Z,57.48
2023-05-10T05:05:53.393Z,56.27
2023-05-10T05:08:21.278Z,55.15
2023-05-10T05:10:51.227Z,53.82
2023-05-10T05:13:19.764Z,52.78
2023-05-10T05:15:48.006Z,51.95
2023-05-10T05:18:15.802Z,50.49
2023-05-10T05:20:43.669Z,49.87
2023-05-10T05:23:11.628Z,49.61
2023-05-10T05:25:39.840Z,49.69
2023-05-10T05:28:08.201Z,49.67
2023-05-10T05:30:36.185Z,49.98
2023-05-10T05:33:04.156Z,49.77
2023-05-10T05:35:31.998Z,49.02
2023-05-10T05:38:00.081Z,48.89
2023-05-10T05:40:28.131Z,49.27
2023-05-10T05:42:56.325Z,48.92
2023-05-10T05:45:24.177Z,49.16
2023-05-10T05:47:52.294Z,48.82
2023-05-10T05:50:20.222Z,48.77
2023-05-10T05:52:48.283Z,49.21
2023-05-10T05:55:16.735Z,49.05
2023-05-10T05:57:45.132Z,48.88
2023-05-10T06:00:13.415Z,48.84
2023-05-10T06:02:41.314Z,48.97
2023-05-10T06:05:09.770Z,49.19
2023-05-10T06:07:37.569Z,49.43
2023-05-10T06:10:06.977Z,49.64
2023-05-10T06:12:35.095Z,49.69
2023-05-10T06:15:03.689Z,49.29
2023-05-10T06:17:31.599Z,49.52
2023-05-10T06:19:59.838Z,49.70
2023-05-10T06:22:27.901Z,49.30
2023-05-10T06:24:56.388Z,48.83
2023-05-10T06:27:24.259Z,48.77
2023-05-10T06:29:56.455Z,48.49
2023-05-10T06:32:27.475Z,48.62
2023-05-10T06:34:55.623Z,48.27
2023-05-10T06:37:23.509Z,47.99
2023-05-10T06:39:51.351Z,48.12
2023-05-10T06:42:19.275Z,48.29
2023-05-10T06:44:47.699Z,48.53
2023-05-10T06:47:15.567Z,48.49
2023-05-10T06:49:43.428Z,47.72
2023-05-10T06:52:11.197Z,47.88
2023-05-10T06:54:39.682Z,47.69
2023-05-10T06:57:15.988Z,47.31
2023-05-10T06:59:47.698Z,47.51
2023-05-10T07:02:16.388Z,47.15
2023-05-10T07:04:44.720Z,47.01
2023-05-10T07:07:12.726Z,47.18
2023-05-10T07:09:40.699Z,47.56
2023-05-10T07:12:11.122Z,47.10
2023-05-10T07:14:40.124Z,47.04
2023-05-10T07:17:08.111Z,46.93
2023-05-10T07:19:37.115Z,46.50
2023-05-10T07:22:04.843Z,46.49
2023-05-10T07:24:33.221Z,47.09
2023-05-10T07:27:01.391Z,46.91
2023-05-10T07:29:29.692Z,46.87
2023-05-10T07:31:58.850Z,46.13
2023-05-10T07:34:26.997Z,46.52
2023-05-10T07:36:55.191Z,46.34
2023-05-10T07:39:27.804Z,46.50
2023-05-10T07:41:56.975Z,46.26
2023-05-10T07:44:25.048Z,46.30
2023-05-10T07:46:53.221Z,45.42
2023-05-10T07:49:21.202Z,45.48
2023-05-10T07:51:49.580Z,44.93
2023-05-10T07:54:17.555Z,44.48
2023-05-10T07:56:48.117Z,44.51
2023-05-10T07:59:17.170Z,44.64
2023-05-10T08:01:45.684Z,43.89
2023-05-10T08:04:14.075Z,43.98
2023-05-10T08:06:42.140Z,42.96
2023-05-10T08:09:10.663Z,42.33
2023-05-10T08:11:38.527Z,42.38
2023-05-10T08:14:06.513Z,42.28
2023-05-10T08:16:35.461Z,41.15
2023-05-10T08:19:03.633Z,40.76
2023-05-10T08:21:32.448Z,40.70
2023-05-10T08:24:00.527Z,40.55
2023-05-10T08:26:28.496Z,40.01
2023-05-10T08:28:56.376Z,40.36
2023-05-10T08:31:24.272Z,40.42
2023-05-10T08:33:53.782Z,40.91
2023-05-10T08:36:23.005Z,40.70
2023-05-10T08:38:54.821Z,40.47
2023-05-10T08:41:24.871Z,40.77
2023-05-10T08:43:54.018Z,40.96
2023-05-10T08:46:22.895Z,39.35
2023-05-10T08:48:52.362Z,38.21
2023-05-10T08:51:23.165Z,38.15
2023-05-10T08:53:51.072Z,38.25
2023-05-10T08:56:19.058Z,38.33
2023-05-10T08:58:47.137Z,38.63
2023-05-10T09:01:17.613Z,38.62
2023-05-10T09:03:47.190Z,37.68
2023-05-10T09:06:15.562Z,37.32
2023-05-10T09:08:44.052Z,37.29
2023-05-10T09:11:12.869Z,37.33
2023-05-10T09:13:40.834Z,37.46
2023-05-10T09:16:20.309Z,37.00
2023-05-10T09:18:50.702Z,36.25
2023-05-10T09:21:20.564Z,36.28
2023-05-10T09:23:51.327Z,36.05
2023-05-10T09:26:23.456Z,36.09
2023-05-10T09:28:55.582Z,35.78
2023-05-10T09:31:24.855Z,35.62
2023-05-10T09:33:53.216Z,36.31
2023-05-10T09:36:21.076Z,36.51
2023-05-10T09:38:53.016Z,36.50
2023-05-10T09:41:22.863Z,35.95
2023-05-10T09:43:51.430Z,35.47
2023-05-10T09:46:19.328Z,36.64
2023-05-10T09:48:48.743Z,36.15
2023-05-10T09:51:23.151Z,36.57
2023-05-10T09:54:10.824Z,36.20
2023-05-10T09:56:41.082Z,35.94
2023-05-10T09:59:11.179Z,35.78
2023-05-10T10:01:39.377Z,35.57
2023-05-10T10:04:08.539Z,36.74
2023-05-10T10:06:40.219Z,36.69
2023-05-10T10:09:08.916Z,36.50
2023-05-10T10:11:37.781Z,35.04
2023-05-10T10:14:06.597Z,34.64
2023-05-10T10:16:34.904Z,34.84
2023-05-10T10:19:03.197Z,35.53
2023-05-10T10:21:32.106Z,35.88
2023-05-10T10:24:00.394Z,35.25
2023-05-10T10:26:28.467Z,34.35
2023-05-10T10:29:15.071Z,34.03
2023-05-10T10:31:47.463Z,33.28
2023-05-10T10:34:25.699Z,32.76
2023-05-10T10:36:53.675Z,33.31
2023-05-10T10:39:21.791Z,32.32
2023-05-10T10:41:54.584Z,31.63
2023-05-10T10:44:32.019Z,32.04
2023-05-10T10:47:00.029Z,32.65
2023-05-10T10:49:28.410Z,32.87
2023-05-10T10:52:15.923Z,33.13
2023-05-10T10:54:50.776Z,32.39
2023-05-10T10:57:20.054Z,33.31
2023-05-10T10:59:48.433Z,33.59
2023-05-10T11:02:36.309Z,33.08
2023-05-10T11:05:27.306Z,32.68
2023-05-10T11:07:56.082Z,33.30
2023-05-10T11:10:24.537Z,31.78
2023-05-10T11:13:02.230Z,31.40
2023-05-10T11:15:31.629Z,31.78
2023-05-10T11:17:59.998Z,32.26
2023-05-10T11:20:34.093Z,32.78
2023-05-10T11:23:16.853Z,33.31
2023-05-10T11:25:45.679Z,34.14
2023-05-10T11:28:14.026Z,33.64
2023-05-10T11:30:43.153Z,32.78
2023-05-10T11:33:16.393Z,31.65
2023-05-10T11:35:44.393Z,31.55
2023-05-10T11:38:13.150Z,31.44
2023-05-10T11:40:41.873Z,31.57
2023-05-10T11:43:11.298Z,32.03
2023-05-10T11:45:41.264Z,32.26
2023-05-10T11:48:09.326Z,32.56
2023-05-10T11:50:37.627Z,32.26
2023-05-10T11:53:05.467Z,31.72
2023-05-10T11:55:34.731Z,32.07
2023-05-10T11:58:03.789Z,32.05
2023-05-10T12:00:32.772Z,31.62
2023-05-10T12:03:01.623Z,31.79
2023-05-10T12:05:32.783Z,31.47
2023-05-10T12:08:14.063Z,31.47
2023-05-10T12:10:42.339Z,31.21
2023-05-10T12:13:17.003Z,31.72
2023-05-10T12:15:44.963Z,30.81
2023-05-10T12:18:13.902Z,30.85
2023-05-10T12:20:41.998Z,30.56
2023-05-10T12:23:11.185Z,30.81
2023-05-10T12:25:40.167Z,31.17
2023-05-10T12:28:10.205Z,31.45
2023-05-10T12:30:38.313Z,31.49
2023-05-10T12:33:08.979Z,31.45
2023-05-10T12:35:50.485Z,30.92
2023-05-10T12:38:35.047Z,30.49
2023-05-10T12:41:04.533Z,31.01
2023-05-10T12:43:32.931Z,31.34
2023-05-10T12:46:07.820Z,30.95
2023-05-10T12:48:36.456Z,30.77
2023-05-10T12:51:05.024Z,31.06
2023-05-10T12:53:32.993Z,32.17
2023-05-10T12:56:00.962Z,31.30
2023-05-10T12:58:35.444Z,30.67
2023-05-10T13:01:05.290Z,30.67
2023-05-10T13:03:33.597Z,30.29
2023-05-10T13:06:01.652Z,31.15
2023-05-10T13:08:34.542Z,30.83
2023-05-10T13:11:03.405Z,30.18
2023-05-10T13:13:31.277Z,30.01
2023-05-10T13:15:59.142Z,30.16
2023-05-10T13:18:27.716Z,30.50
2023-05-10T13:20:56.925Z,29.80
2023-05-10T13:23:24.836Z,29.75
2023-05-10T13:25:53.478Z,29.71
2023-05-10T13:28:21.560Z,29.73
2023-05-10T13:30:49.529Z,29.70
2023-05-10T13:33:17.590Z,29.60
2023-05-10T13:35:45.648Z,29.83
2023-05-10T13:38:13.925Z,30.15
2023-05-10T13:40:42.014Z,30.49
2023-05-10T13:43:09.783Z,30.74
2023-05-10T13:45:37.641Z,30.15
2023-05-10T13:48:05.789Z,29.95
2023-05-10T13:50:33.778Z,30.04
2023-05-10T13:53:01.839Z,30.09
2023-05-10T13:55:29.928Z,30.31
2023-05-10T13:57:57.888Z,30.29
2023-05-10T14:00:25.752Z,30.53
2023-05-10T14:02:53.776Z,30.78
2023-05-10T14:05:25.348Z,30.70
2023-05-10T14:07:54.838Z,30.33
2023-05-10T14:10:22.868Z,30.28
2023-05-10T14:12:51.224Z,30.07
2023-05-10T14:15:19.367Z,29.52
2023-05-10T14:17:47.433Z,29.18
2023-05-10T14:20:15.327Z,28.86
2023-05-10T14:22:43.095Z,29.35
2023-05-10T14:25:11.093Z,29.58
2023-05-10T14:27:39.054Z,30.07
2023-05-10T14:30:07.796Z,30.44
2023-05-10T14:32:37.812Z,30.50
2023-05-10T14:35:07.200Z,31.00
2023-05-10T14:37:35.821Z,30.57
2023-05-10T14:40:05.547Z,30.83
2023-05-10T14:42:33.579Z,30.50
2023-05-10T14:45:01.560Z,30.81
2023-05-10T14:47:29.748Z,31.14
2023-05-10T14:49:57.829Z,31.45
2023-05-10T14:52:25.720Z,31.83
2023-05-10T14:54:53.748Z,32.11
2023-05-10T14:57:21.583Z,32.05
2023-05-10T14:59:49.474Z,32.10
2023-05-10T15:02:18.199Z,32.40
2023-05-10T15:04:46.850Z,32.51
2023-05-10T15:07:16.730Z,31.91
2023-05-10T15:09:45.136Z,31.77
2023-05-10T15:12:13.311Z,31.96
2023-05-10T15:14:41.271Z,31.79
2023-05-10T15:17:09.251Z,31.52
2023-05-10T15:19:37.217Z,31.64
2023-05-10T15:22:06.224Z,31.14
2023-05-10T15:24:34.167Z,31.71
2023-05-10T15:27:02.039Z,31.92
2023-05-10T15:29:30.832Z,31.93
2023-05-10T15:31:58.591Z,32.47
2023-05-10T15:34:26.441Z,32.05
2023-05-10T15:36:54.423Z,31.83
2023-05-10T15:39:22.306Z,31.97
2023-05-10T15:41:50.051Z,32.39
2023-05-10T15:44:18.042Z,32.65
2023-05-10T15:46:46.523Z,32.77
2023-05-10T15:49:14.384Z,32.91
2023-05-10T15:51:42.416Z,33.18
2023-05-10T15:54:10.406Z,33.31
2023-05-10T15:56:38.293Z,33.62
2023-05-10T15:59:06.314Z,34.10
2023-05-10T16:01:34.708Z,34.04
2023-05-10T16:04:03.422Z,33.97
2023-05-10T16:06:31.457Z,34.21
2023-05-10T16:08:59.546Z,34.41
2023-05-10T16:11:27.626Z,34.45
2023-05-10T16:13:55.472Z,34.86
2023-05-10T16:16:23.488Z,35.31
2023-05-10T16:18:52.394Z,35.43
2023-05-10T16:21:20.804Z,35.90
2023-05-10T16:23:48.692Z,35.93
2023-05-10T16:26:17.094Z,35.78
2023-05-10T16:28:45.143Z,36.03
2023-05-10T16:31:13.349Z,36.39
2023-05-10T16:33:41.397Z,36.59
2023-05-10T16:36:09.351Z,36.62
2023-05-10T16:38:37.840Z,36.70
2023-05-10T16:41:06.837Z,37.01
2023-05-10T16:43:34.602Z,37.38
2023-05-10T16:46:02.693Z,37.52
2023-05-10T16:48:30.618Z,37.70
2023-05-10T16:50:58.526Z,38.06
2023-05-10T16:53:26.460Z,38.35
2023-05-10T16:55:54.429Z,38.31
2023-05-10T16:58:22.394Z,38.53
2023-05-10T17:00:50.677Z,38.77
2023-05-10T17:03:18.663Z,39.08
2023-05-10T17:05:46.713Z,39.25
2023-05-10T17:08:14.635Z,39.52
2023-05-10T17:10:42.343Z,40.04
2023-05-10T17:13:10.702Z,40.29
2023-05-10T17:15:39.360Z,40.51
2023-05-10T17:18:07.928Z,40.79
2023-05-10T17:20:36.054Z,41.41
2023-05-10T17:23:04.464Z,41.67
2023-05-10T17:25:32.257Z,41.76
2023-05-10T17:28:00.273Z,42.18
2023-05-10T17:30:28.953Z,42.32
2023-05-10T17:32:56.814Z,43.20
2023-05-10T17:35:24.620Z,43.44
2023-05-10T17:37:52.591Z,43.58
2023-05-10T17:40:20.866Z,44.29
2023-05-10T17:42:48.920Z,44.48
2023-05-10T17:45:17.487Z,44.59
2023-05-10T17:47:45.835Z,45.54
2023-05-10T17:50:14.030Z,45.78
2023-05-10T17:52:42.209Z,45.90
2023-05-10T17:55:10.590Z,46.02
2023-05-10T17:57:38.964Z,46.30
2023-05-10T18:00:08.835Z,45.94
2023-05-10T18:02:37.090Z,45.90
2023-05-10T18:05:05.641Z,46.39
2023-05-10T18:07:34.115Z,46.50
2023-05-10T18:10:04.244Z,46.45
2023-05-10T18:12:32.188Z,47.05
2023-05-10T18:15:00.213Z,46.94
2023-05-10T18:17:28.028Z,46.78
2023-05-10T18:19:56.103Z,46.87
2023-05-10T18:22:24.197Z,46.97
2023-05-10T18:24:52.365Z,47.00
2023-05-10T18:27:20.507Z,47.37
2023-05-10T18:29:48.500Z,47.60
2023-05-10T18:32:16.658Z,48.23
2023-05-10T18:34:44.521Z,48.37
2023-05-10T18:37:12.606Z,48.07
2023-05-10T18:39:40.852Z,47.91
2023-05-10T18:42:08.758Z,48.04
2023-05-10T18:44:36.495Z,48.45
2023-05-10T18:47:06.924Z,48.64
2023-05-10T18:49:34.787Z,49.19
2023-05-10T18:52:02.622Z,49.65
2023-05-10T18:54:30.844Z,50.43
2023-05-10T18:56:58.981Z,50.39
2023-05-10T18:59:28.128Z,50.65
2023-05-10T19:01:57.568Z,50.68
2023-05-10T19:04:26.018Z,51.04
2023-05-10T19:06:53.795Z,51.16
2023-05-10T19:09:22.221Z,51.13
2023-05-10T19:11:51.121Z,51.44
2023-05-10T19:14:18.833Z,51.36
2023-05-10T19:16:47.453Z,51.14
2023-05-10T19:19:15.660Z,51.25
2023-05-10T19:21:43.592Z,51.45
2023-05-10T19:24:12.390Z,51.24
2023-05-10T19:26:40.648Z,51.10
2023-05-10T19:29:09.751Z,51.07
2023-05-10T19:31:37.511Z,51.29
2023-05-10T19:34:05.909Z,51.96
2023-05-10T19:36:34.911Z,52.47
2023-05-10T19:39:02.826Z,52.59
2023-05-10T19:41:30.593Z,53.10
2023-05-10T19:43:58.549Z,53.62
2023-05-10T19:46:27.306Z,54.09
2023-05-10T19:48:55.339Z,54.52
2023-05-10T19:51:23.189Z,54.58
2023-05-10T19:53:51.169Z,54.12
2023-05-10T19:56:19.548Z,54.32
2023-05-10T19:58:47.427Z,54.44
2023-05-10T20:01:15.312Z,54.85
2023-05-10T20:03:43.304Z,54.90
2023-05-10T20:06:12.155Z,55.43
2023-05-10T20:08:40.004Z,56.21
2023-05-10T20:11:07.870Z,56.82
2023-05-10T20:13:35.840Z,56.55
2023-05-10T20:16:05.165Z,55.98
2023-05-10T20:18:33.643Z,56.09
2023-05-10T20:21:01.592Z,55.65
2023-05-10T20:23:29.696Z,55.51
2023-05-10T20:25:58.342Z,56.06
2023-05-10T20:28:26.589Z,56.72
2023-05-10T20:30:55.720Z,56.79
2023-05-10T20:33:23.801Z,57.31
2023-05-10T20:35:52.573Z,57.49
2023-05-10T20:38:21.268Z,57.51
2023-05-10T20:40:49.247Z,58.44
2023-05-10T20:43:17.096Z,58.25
2023-05-10T20:45:45.085Z,58.66
2023-05-10T20:48:13.453Z,58.47
2023-05-10T20:50:41.399Z,58.25
2023-05-10T20:53:09.583Z,58.49
2023-05-10T20:55:37.543Z,58.34
2023-05-10T20:58:05.518Z,59.20
2023-05-10T21:00:33.491Z,59.47
2023-05-10T21:03:01.583Z,59.77
2023-05-10T21:05:29.727Z,59.84
2023-05-10T21:07:57.794Z,59.43
2023-05-10T21:10:28.341Z,59.44
2023-05-10T21:12:56.597Z,59.86
2023-05-10T21:15:25.831Z,60.15
2023-05-10T21:17:54.497Z,60.64
2023-05-10T21:20:23.584Z,61.01
2023-05-10T21:22:51.555Z,61.10
2023-05-10T21:25:19.526Z,60.94
2023-05-10T21:27:47.588Z,61.12
2023-05-10T21:30:15.662Z,61.70
2023-05-10T21:32:44.055Z,61.48
2023-05-10T21:35:12.157Z,61.45
2023-05-10T21:37:40.185Z,61.45
2023-05-10T21:40:08.217Z,61.52
2023-05-10T21:42:36.202Z,61.79
2023-05-10T21:45:04.409Z,62.57
2023-05-10T21:47:32.328Z,62.19
2023-05-10T21:50:00.228Z,62.10
2023-05-10T21:52:28.218Z,61.99
2023-05-10T21:54:56.101Z,62.14
2023-05-10T21:57:23.922Z,62.13
2023-05-10T21:59:51.791Z,62.05
2023-05-10T22:02:19.728Z,61.99
2023-05-10T22:04:47.619Z,63.34
2023-05-10T22:07:17.069Z,63.61
2023-05-10T22:09:44.885Z,62.74
2023-05-10T22:12:13.009Z,63.32
2023-05-10T22:14:40.934Z,63.63
2023-05-10T22:17:08.869Z,63.46
2023-05-10T22:19:36.724Z,64.36
2023-05-10T22:22:04.637Z,64.47
2023-05-10T22:24:32.419Z,64.85
2023-05-10T22:27:00.258Z,64.58
2023-05-10T22:29:28.327Z,64.48
2023-05-10T22:31:56.373Z,64.72
2023-05-10T22:34:24.434Z,64.47
2023-05-10T22:36:52.651Z,64.87
2023-05-10T22:39:20.406Z,64.70
2023-05-10T22:41:48.166Z,65.02
2023-05-10T22:44:16.248Z,65.20
2023-05-10T22:46:44.119Z,65.29
2023-05-10T22:49:12.482Z,65.35
2023-05-10T22:51:40.455Z,65.41
2023-05-10T22:54:08.930Z,65.39
2023-05-10T22:56:37.006Z,65.70
2023-05-10T22:59:05.496Z,67.31
2023-05-10T23:01:33.693Z,66.99
2023-05-10T23:04:02.037Z,67.01
2023-05-10T23:06:29.898Z,67.87
2023-05-10T23:08:57.962Z,69.72
2023-05-10T23:11:26.243Z,69.16
2023-05-10T23:13:54.124Z,68.31
2023-05-10T23:16:22.504Z,68.12
2023-05-10T23:18:50.619Z,68.22
2023-05-10T23:21:18.852Z,68.84
2023-05-10T23:23:46.874Z,68.98
2023-05-10T23:26:14.768Z,68.84
2023-05-10T23:28:42.661Z,68.50
2023-05-10T23:31:10.520Z,69.51
2023-05-10T23:33:38.278Z,69.07
2023-05-10T23:36:06.446Z,69.41
2023-05-10T23:38:34.305Z,69.42
2023-05-10T23:41:02.188Z,69.38
2023-05-10T23:43:30.044Z,69.15
2023-05-10T23:45:58.375Z,69.08
2023-05-10T23:48:26.918Z,69.88
2023-05-10T23:50:54.860Z,69.18
2023-05-10T23:53:23.151Z,69.14
2023-05-10T23:55:50.935Z,69.67
2023-05-10T23:58:18.874Z,70.60
